sensor_id;sensor_type;location;lat;lon;timestamp;P1;durP1;ratioP1;P2;durP2;ratioP2
14272;SDS011;7220;49.450;11.052;2023-09-12T00:03:18;7.60;;;5.57;;
14272;SDS011;7220;49.450;11.052;2023-09-12T00:07:20;8.52;;;7.00;;
14272;SDS011;7220;49.450;11.052;2023-09-12T00:11:20;8.55;;;6.25;;
14272;SDS011;7220;49.450;11.052;2023-09-12T00:15:21;9.07;;;6.53;;
14272;SDS011;7220;49.450;11.052;2023-09-12T00:19:21;8.80;;;7.10;;
14272;SDS011;7220;49.450;11.052;2023-09-12T00:23:22;10.53;;;7.07;;
14272;SDS011;7220;49.450;11.052;2023-09-12T00:27:23;10.15;;;7.80;;
14272;SDS011;7220;49.450;11.052;2023-09-12T00:31:23;7.53;;;6.72;;
14272;SDS011;7220;49.450;11.052;2023-09-12T00:35:24;7.65;;;6.40;;
14272;SDS011;7220;49.450;11.052;2023-09-12T00:39:24;7.23;;;5.67;;
14272;SDS011;7220;49.450;11.052;2023-09-12T00:43:24;7.82;;;6.72;;
14272;SDS011;7220;49.450;11.052;2023-09-12T00:47:25;6.93;;;6.18;;
14272;SDS011;7220;49.450;11.052;2023-09-12T00:51:26;8.73;;;6.57;;
14272;SDS011;7220;49.450;11.052;2023-09-12T00:55:28;7.97;;;5.30;;
14272;SDS011;7220;49.450;11.052;2023-09-12T00:59:30;8.55;;;6.07;;
14272;SDS011;7220;49.450;11.052;2023-09-12T01:03:31;8.55;;;5.65;;
14272;SDS011;7220;49.450;11.052;2023-09-12T01:07:32;7.97;;;6.45;;
14272;SDS011;7220;49.450;11.052;2023-09-12T01:11:32;7.68;;;6.03;;
14272;SDS011;7220;49.450;11.052;2023-09-12T01:15:33;6.13;;;5.53;;
14272;SDS011;7220;49.450;11.052;2023-09-12T01:19:33;8.68;;;6.40;;
14272;SDS011;7220;49.450;11.052;2023-09-12T01:23:42;7.43;;;5.68;;
14272;SDS011;7220;49.450;11.052;2023-09-12T01:28:02;6.57;;;5.85;;
14272;SDS011;7220;49.450;11.052;2023-09-12T01:32:07;8.70;;;5.63;;
14272;SDS011;7220;49.450;11.052;2023-09-12T01:36:09;8.05;;;6.00;;
14272;SDS011;7220;49.450;11.052;2023-09-12T01:40:10;8.57;;;6.40;;
14272;SDS011;7220;49.450;11.052;2023-09-12T01:44:11;6.85;;;5.82;;
14272;SDS011;7220;49.450;11.052;2023-09-12T01:48:12;7.30;;;5.95;;
14272;SDS011;7220;49.450;11.052;2023-09-12T01:52:16;6.20;;;5.53;;
14272;SDS011;7220;49.450;11.052;2023-09-12T01:56:16;6.90;;;5.35;;
14272;SDS011;7220;49.450;11.052;2023-09-12T02:00:18;8.93;;;5.95;;
14272;SDS011;7220;49.450;11.052;2023-09-12T02:04:19;8.50;;;6.05;;
14272;SDS011;7220;49.450;11.052;2023-09-12T02:08:20;7.35;;;5.90;;
14272;SDS011;7220;49.450;11.052;2023-09-12T02:12:20;6.90;;;4.97;;
14272;SDS011;7220;49.450;11.052;2023-09-12T02:16:21;7.32;;;6.07;;
14272;SDS011;7220;49.450;11.052;2023-09-12T02:20:21;7.05;;;5.93;;
14272;SDS011;7220;49.450;11.052;2023-09-12T02:24:21;8.48;;;6.07;;
14272;SDS011;7220;49.450;11.052;2023-09-12T02:28:22;6.20;;;4.80;;
14272;SDS011;7220;49.450;11.052;2023-09-12T02:32:22;7.95;;;5.68;;
14272;SDS011;7220;49.450;11.052;2023-09-12T02:36:22;6.38;;;5.55;;
14272;SDS011;7220;49.450;11.052;2023-09-12T02:40:23;7.63;;;5.90;;
14272;SDS011;7220;49.450;11.052;2023-09-12T02:44:23;8.00;;;5.25;;
14272;SDS011;7220;49.450;11.052;2023-09-12T02:48:23;8.90;;;5.57;;
14272;SDS011;7220;49.450;11.052;2023-09-12T02:52:24;8.83;;;5.80;;
14272;SDS011;7220;49.450;11.052;2023-09-12T02:56:24;11.33;;;5.70;;
14272;SDS011;7220;49.450;11.052;2023-09-12T03:00:24;7.93;;;5.53;;
14272;SDS011;7220;49.450;11.052;2023-09-12T03:04:25;6.28;;;5.45;;
14272;SDS011;7220;49.450;11.052;2023-09-12T03:08:28;5.80;;;5.20;;
14272;SDS011;7220;49.450;11.052;2023-09-12T03:12:28;6.50;;;5.47;;
14272;SDS011;7220;49.450;11.052;2023-09-12T03:16:28;5.37;;;4.80;;
14272;SDS011;7220;49.450;11.052;2023-09-12T03:20:29;7.60;;;5.72;;
14272;SDS011;7220;49.450;11.052;2023-09-12T03:24:29;7.20;;;5.47;;
14272;SDS011;7220;49.450;11.052;2023-09-12T03:28:30;6.38;;;4.93;;
14272;SDS011;7220;49.450;11.052;2023-09-12T03:32:30;5.68;;;5.15;;
14272;SDS011;7220;49.450;11.052;2023-09-12T03:36:31;8.38;;;6.55;;
14272;SDS011;7220;49.450;11.052;2023-09-12T03:40:31;8.25;;;5.95;;
14272;SDS011;7220;49.450;11.052;2023-09-12T03:44:32;9.20;;;6.32;;
14272;SDS011;7220;49.450;11.052;2023-09-12T03:48:32;8.10;;;5.10;;
14272;SDS011;7220;49.450;11.052;2023-09-12T03:52:34;8.70;;;5.88;;
14272;SDS011;7220;49.450;11.052;2023-09-12T03:56:34;6.85;;;4.80;;
14272;SDS011;7220;49.450;11.052;2023-09-12T04:00:34;6.60;;;5.18;;
14272;SDS011;7220;49.450;11.052;2023-09-12T04:04:35;6.45;;;5.53;;
14272;SDS011;7220;49.450;11.052;2023-09-12T04:08:35;7.03;;;5.10;;
14272;SDS011;7220;49.450;11.052;2023-09-12T04:12:35;8.03;;;6.17;;
14272;SDS011;7220;49.450;11.052;2023-09-12T04:16:36;7.53;;;5.70;;
14272;SDS011;7220;49.450;11.052;2023-09-12T04:20:36;6.97;;;5.50;;
14272;SDS011;7220;49.450;11.052;2023-09-12T04:24:37;7.78;;;5.82;;
14272;SDS011;7220;49.450;11.052;2023-09-12T04:28:37;9.53;;;7.07;;
14272;SDS011;7220;49.450;11.052;2023-09-12T04:32:37;7.83;;;6.43;;
14272;SDS011;7220;49.450;11.052;2023-09-12T04:36:37;7.97;;;6.00;;
14272;SDS011;7220;49.450;11.052;2023-09-12T04:40:38;6.67;;;5.70;;
14272;SDS011;7220;49.450;11.052;2023-09-12T04:44:39;9.02;;;5.97;;
14272;SDS011;7220;49.450;11.052;2023-09-12T04:48:40;7.78;;;6.30;;
14272;SDS011;7220;49.450;11.052;2023-09-12T04:52:41;7.80;;;5.67;;
14272;SDS011;7220;49.450;11.052;2023-09-12T04:56:41;8.10;;;6.13;;
14272;SDS011;7220;49.450;11.052;2023-09-12T05:00:41;7.97;;;6.23;;
14272;SDS011;7220;49.450;11.052;2023-09-12T05:04:41;7.77;;;6.17;;
14272;SDS011;7220;49.450;11.052;2023-09-12T05:08:42;8.63;;;6.07;;
14272;SDS011;7220;49.450;11.052;2023-09-12T05:12:42;6.90;;;5.40;;
14272;SDS011;7220;49.450;11.052;2023-09-12T05:16:42;8.40;;;6.28;;
14272;SDS011;7220;49.450;11.052;2023-09-12T05:20:43;6.63;;;5.63;;
14272;SDS011;7220;49.450;11.052;2023-09-12T05:24:43;9.82;;;6.20;;
14272;SDS011;7220;49.450;11.052;2023-09-12T05:28:43;9.63;;;6.32;;
14272;SDS011;7220;49.450;11.052;2023-09-12T05:32:44;10.17;;;5.80;;
14272;SDS011;7220;49.450;11.052;2023-09-12T05:36:44;6.75;;;5.80;;
14272;SDS011;7220;49.450;11.052;2023-09-12T05:40:44;8.60;;;6.80;;
14272;SDS011;7220;49.450;11.052;2023-09-12T05:44:45;7.95;;;6.22;;
14272;SDS011;7220;49.450;11.052;2023-09-12T05:48:46;7.00;;;6.15;;
14272;SDS011;7220;49.450;11.052;2023-09-12T05:52:46;6.27;;;5.67;;
14272;SDS011;7220;49.450;11.052;2023-09-12T05:56:47;8.07;;;6.32;;
14272;SDS011;7220;49.450;11.052;2023-09-12T06:00:48;8.80;;;6.18;;
14272;SDS011;7220;49.450;11.052;2023-09-12T06:04:48;9.73;;;6.50;;
14272;SDS011;7220;49.450;11.052;2023-09-12T06:08:48;9.33;;;6.40;;
14272;SDS011;7220;49.450;11.052;2023-09-12T06:12:49;6.65;;;5.95;;
14272;SDS011;7220;49.450;11.052;2023-09-12T06:16:49;8.30;;;6.07;;
14272;SDS011;7220;49.450;11.052;2023-09-12T06:20:50;7.85;;;6.43;;
14272;SDS011;7220;49.450;11.052;2023-09-12T06:24:50;8.98;;;6.13;;
14272;SDS011;7220;49.450;11.052;2023-09-12T06:28:51;8.00;;;6.45;;
14272;SDS011;7220;49.450;11.052;2023-09-12T06:32:51;10.37;;;6.53;;
14272;SDS011;7220;49.450;11.052;2023-09-12T06:36:51;6.40;;;5.77;;
14272;SDS011;7220;49.450;11.052;2023-09-12T06:40:52;10.07;;;6.25;;
14272;SDS011;7220;49.450;11.052;2023-09-12T06:44:52;9.23;;;6.30;;
14272;SDS011;7220;49.450;11.052;2023-09-12T06:48:52;9.90;;;6.80;;
14272;SDS011;7220;49.450;11.052;2023-09-12T06:52:53;8.02;;;5.75;;
14272;SDS011;7220;49.450;11.052;2023-09-12T06:56:53;5.90;;;4.97;;
14272;SDS011;7220;49.450;11.052;2023-09-12T07:00:53;8.10;;;6.23;;
14272;SDS011;7220;49.450;11.052;2023-09-12T07:04:54;7.53;;;5.93;;
14272;SDS011;7220;49.450;11.052;2023-09-12T07:08:55;9.50;;;6.00;;
14272;SDS011;7220;49.450;11.052;2023-09-12T07:12:55;9.33;;;6.70;;
14272;SDS011;7220;49.450;11.052;2023-09-12T07:16:55;7.27;;;5.70;;
14272;SDS011;7220;49.450;11.052;2023-09-12T07:20:56;8.55;;;6.05;;
14272;SDS011;7220;49.450;11.052;2023-09-12T07:25:00;6.47;;;5.72;;
14272;SDS011;7220;49.450;11.052;2023-09-12T07:29:01;7.87;;;6.60;;
14272;SDS011;7220;49.450;11.052;2023-09-12T07:33:03;7.55;;;5.75;;
14272;SDS011;7220;49.450;11.052;2023-09-12T07:37:06;8.07;;;6.65;;
14272;SDS011;7220;49.450;11.052;2023-09-12T07:41:07;7.30;;;6.10;;
14272;SDS011;7220;49.450;11.052;2023-09-12T07:45:07;7.17;;;6.00;;
14272;SDS011;7220;49.450;11.052;2023-09-12T07:49:08;6.68;;;5.93;;
14272;SDS011;7220;49.450;11.052;2023-09-12T07:53:09;8.27;;;6.65;;
14272;SDS011;7220;49.450;11.052;2023-09-12T07:57:09;7.57;;;6.45;;
14272;SDS011;7220;49.450;11.052;2023-09-12T08:01:10;7.68;;;6.03;;
14272;SDS011;7220;49.450;11.052;2023-09-12T08:05:10;6.65;;;5.80;;
14272;SDS011;7220;49.450;11.052;2023-09-12T08:09:10;8.20;;;6.13;;
14272;SDS011;7220;49.450;11.052;2023-09-12T08:13:11;9.75;;;6.05;;
14272;SDS011;7220;49.450;11.052;2023-09-12T08:17:11;8.20;;;5.83;;
14272;SDS011;7220;49.450;11.052;2023-09-12T08:21:12;8.77;;;6.22;;
14272;SDS011;7220;49.450;11.052;2023-09-12T08:25:12;7.07;;;6.03;;
14272;SDS011;7220;49.450;11.052;2023-09-12T08:29:14;7.55;;;5.88;;
14272;SDS011;7220;49.450;11.052;2023-09-12T08:33:14;8.13;;;5.33;;
14272;SDS011;7220;49.450;11.052;2023-09-12T08:37:15;6.53;;;5.22;;
14272;SDS011;7220;49.450;11.052;2023-09-12T08:41:15;6.13;;;5.10;;
14272;SDS011;7220;49.450;11.052;2023-09-12T08:45:17;5.70;;;4.82;;
14272;SDS011;7220;49.450;11.052;2023-09-12T08:49:19;5.80;;;5.03;;
14272;SDS011;7220;49.450;11.052;2023-09-12T08:53:19;7.03;;;5.05;;
14272;SDS011;7220;49.450;11.052;2023-09-12T08:57:22;8.05;;;5.72;;
14272;SDS011;7220;49.450;11.052;2023-09-12T09:01:22;5.25;;;4.75;;
14272;SDS011;7220;49.450;11.052;2023-09-12T09:05:27;5.75;;;4.70;;
14272;SDS011;7220;49.450;11.052;2023-09-12T09:09:29;5.60;;;5.05;;
14272;SDS011;7220;49.450;11.052;2023-09-12T09:13:30;6.07;;;4.78;;
14272;SDS011;7220;49.450;11.052;2023-09-12T09:17:30;5.18;;;4.68;;
14272;SDS011;7220;49.450;11.052;2023-09-12T09:21:31;5.22;;;4.20;;
14272;SDS011;7220;49.450;11.052;2023-09-12T09:25:33;6.13;;;4.97;;
14272;SDS011;7220;49.450;11.052;2023-09-12T09:29:45;6.38;;;5.40;;
14272;SDS011;7220;49.450;11.052;2023-09-12T09:33:46;8.73;;;5.20;;
14272;SDS011;7220;49.450;11.052;2023-09-12T09:37:51;4.95;;;4.45;;
14272;SDS011;7220;49.450;11.052;2023-09-12T09:41:52;5.93;;;4.93;;
14272;SDS011;7220;49.450;11.052;2023-09-12T09:45:54;5.15;;;4.65;;
14272;SDS011;7220;49.450;11.052;2023-09-12T09:49:54;5.95;;;4.80;;
14272;SDS011;7220;49.450;11.052;2023-09-12T09:53:59;5.28;;;4.78;;
14272;SDS011;7220;49.450;11.052;2023-09-12T09:58:00;4.45;;;4.07;;
14272;SDS011;7220;49.450;11.052;2023-09-12T10:02:01;5.47;;;4.97;;
14272;SDS011;7220;49.450;11.052;2023-09-12T10:06:04;7.15;;;4.68;;
14272;SDS011;7220;49.450;11.052;2023-09-12T10:10:05;10.07;;;5.10;;
14272;SDS011;7220;49.450;11.052;2023-09-12T10:14:07;5.20;;;4.70;;
14272;SDS011;7220;49.450;11.052;2023-09-12T10:18:08;5.63;;;5.13;;
14272;SDS011;7220;49.450;11.052;2023-09-12T10:22:13;5.57;;;4.78;;
14272;SDS011;7220;49.450;11.052;2023-09-12T10:26:25;6.10;;;5.25;;
14272;SDS011;7220;49.450;11.052;2023-09-12T10:30:26;5.60;;;5.03;;
14272;SDS011;7220;49.450;11.052;2023-09-12T10:34:28;5.97;;;5.38;;
14272;SDS011;7220;49.450;11.052;2023-09-12T10:38:30;5.78;;;4.88;;
14272;SDS011;7220;49.450;11.052;2023-09-12T10:42:32;5.60;;;5.03;;
14272;SDS011;7220;49.450;11.052;2023-09-12T10:46:37;7.43;;;4.97;;
14272;SDS011;7220;49.450;11.052;2023-09-12T10:50:42;5.57;;;4.97;;
14272;SDS011;7220;49.450;11.052;2023-09-12T10:54:44;5.63;;;5.13;;
14272;SDS011;7220;49.450;11.052;2023-09-12T11:11:41;6.97;;;4.95;;
14272;SDS011;7220;49.450;11.052;2023-09-12T11:20:15;5.93;;;4.60;;
14272;SDS011;7220;49.450;11.052;2023-09-12T11:24:17;5.68;;;4.40;;
14272;SDS011;7220;49.450;11.052;2023-09-12T11:28:18;5.15;;;4.65;;
14272;SDS011;7220;49.450;11.052;2023-09-12T11:32:26;4.72;;;4.22;;
14272;SDS011;7220;49.450;11.052;2023-09-12T11:36:30;4.28;;;3.88;;
14272;SDS011;7220;49.450;11.052;2023-09-12T11:44:33;3.95;;;3.55;;
14272;SDS011;7220;49.450;11.052;2023-09-12T11:48:34;4.28;;;3.85;;
14272;SDS011;7220;49.450;11.052;2023-09-12T11:52:37;4.38;;;3.75;;
14272;SDS011;7220;49.450;11.052;2023-09-12T11:56:38;4.60;;;4.20;;
14272;SDS011;7220;49.450;11.052;2023-09-12T12:00:49;4.00;;;3.70;;
14272;SDS011;7220;49.450;11.052;2023-09-12T12:04:56;4.70;;;3.80;;
14272;SDS011;7220;49.450;11.052;2023-09-12T12:08:59;4.18;;;3.78;;
14272;SDS011;7220;49.450;11.052;2023-09-12T12:12:59;5.43;;;3.70;;
14272;SDS011;7220;49.450;11.052;2023-09-12T12:17:04;4.50;;;4.00;;
14272;SDS011;7220;49.450;11.052;2023-09-12T12:21:07;3.60;;;3.30;;
14272;SDS011;7220;49.450;11.052;2023-09-12T12:25:10;3.77;;;3.47;;
14272;SDS011;7220;49.450;11.052;2023-09-12T12:29:11;3.85;;;3.03;;
14272;SDS011;7220;49.450;11.052;2023-09-12T12:33:13;3.72;;;3.22;;
14272;SDS011;7220;49.450;11.052;2023-09-12T12:37:13;3.10;;;2.80;;
14272;SDS011;7220;49.450;11.052;2023-09-12T12:41:15;2.97;;;2.77;;
14272;SDS011;7220;49.450;11.052;2023-09-12T12:45:16;3.40;;;3.10;;
14272;SDS011;7220;49.450;11.052;2023-09-12T12:49:20;3.50;;;3.25;;
14272;SDS011;7220;49.450;11.052;2023-09-12T12:53:43;4.15;;;3.75;;
14272;SDS011;7220;49.450;11.052;2023-09-12T12:57:50;3.95;;;3.33;;
14272;SDS011;7220;49.450;11.052;2023-09-12T13:01:50;3.05;;;2.85;;
14272;SDS011;7220;49.450;11.052;2023-09-12T13:05:51;3.20;;;3.00;;
14272;SDS011;7220;49.450;11.052;2023-09-12T13:09:51;3.30;;;3.10;;
14272;SDS011;7220;49.450;11.052;2023-09-12T13:13:51;3.83;;;2.97;;
14272;SDS011;7220;49.450;11.052;2023-09-12T13:17:52;3.60;;;3.30;;
14272;SDS011;7220;49.450;11.052;2023-09-12T13:21:52;3.33;;;3.03;;
14272;SDS011;7220;49.450;11.052;2023-09-12T13:25:53;3.13;;;2.58;;
14272;SDS011;7220;49.450;11.052;2023-09-12T13:29:54;4.68;;;3.75;;
14272;SDS011;7220;49.450;11.052;2023-09-12T13:33:54;3.60;;;3.30;;
14272;SDS011;7220;49.450;11.052;2023-09-12T13:37:54;3.43;;;3.13;;
14272;SDS011;7220;49.450;11.052;2023-09-12T13:41:55;3.50;;;3.20;;
14272;SDS011;7220;49.450;11.052;2023-09-12T13:45:57;3.72;;;3.42;;
14272;SDS011;7220;49.450;11.052;2023-09-12T13:49:58;4.17;;;3.10;;
14272;SDS011;7220;49.450;11.052;2023-09-12T13:53:58;4.53;;;3.60;;
14272;SDS011;7220;49.450;11.052;2023-09-12T13:57:58;3.53;;;3.23;;
14272;SDS011;7220;49.450;11.052;2023-09-12T14:01:59;4.65;;;3.47;;
14272;SDS011;7220;49.450;11.052;2023-09-12T14:05:59;3.63;;;3.10;;
14272;SDS011;7220;49.450;11.052;2023-09-12T14:09:59;3.47;;;3.17;;
14272;SDS011;7220;49.450;11.052;2023-09-12T14:14:01;3.45;;;3.15;;
14272;SDS011;7220;49.450;11.052;2023-09-12T14:18:02;3.70;;;3.40;;
14272;SDS011;7220;49.450;11.052;2023-09-12T14:22:03;3.92;;;3.53;;
14272;SDS011;7220;49.450;11.052;2023-09-12T14:26:03;3.50;;;3.20;;
14272;SDS011;7220;49.450;11.052;2023-09-12T14:30:03;3.80;;;3.50;;
14272;SDS011;7220;49.450;11.052;2023-09-12T14:34:05;3.90;;;3.60;;
14272;SDS011;7220;49.450;11.052;2023-09-12T14:38:06;4.18;;;3.17;;
14272;SDS011;7220;49.450;11.052;2023-09-12T14:42:06;4.13;;;3.45;;
14272;SDS011;7220;49.450;11.052;2023-09-12T14:46:08;4.20;;;3.55;;
14272;SDS011;7220;49.450;11.052;2023-09-12T14:50:10;3.50;;;3.20;;
14272;SDS011;7220;49.450;11.052;2023-09-12T14:54:10;4.38;;;3.60;;
14272;SDS011;7220;49.450;11.052;2023-09-12T14:58:10;3.73;;;3.43;;
14272;SDS011;7220;49.450;11.052;2023-09-12T15:02:12;3.55;;;3.25;;
14272;SDS011;7220;49.450;11.052;2023-09-12T15:06:12;3.70;;;3.40;;
14272;SDS011;7220;49.450;11.052;2023-09-12T15:10:13;3.80;;;3.35;;
14272;SDS011;7220;49.450;11.052;2023-09-12T15:14:13;5.07;;;3.47;;
14272;SDS011;7220;49.450;11.052;2023-09-12T15:18:13;4.07;;;3.40;;
14272;SDS011;7220;49.450;11.052;2023-09-12T15:22:14;3.77;;;3.43;;
14272;SDS011;7220;49.450;11.052;2023-09-12T15:26:14;3.77;;;3.47;;
14272;SDS011;7220;49.450;11.052;2023-09-12T15:30:14;3.47;;;3.17;;
14272;SDS011;7220;49.450;11.052;2023-09-12T15:34:15;3.95;;;3.50;;
14272;SDS011;7220;49.450;11.052;2023-09-12T15:38:15;5.00;;;3.90;;
14272;SDS011;7220;49.450;11.052;2023-09-12T15:42:15;3.80;;;3.20;;
14272;SDS011;7220;49.450;11.052;2023-09-12T15:46:16;3.78;;;3.40;;
14272;SDS011;7220;49.450;11.052;2023-09-12T15:50:16;5.05;;;3.42;;
14272;SDS011;7220;49.450;11.052;2023-09-12T15:54:17;4.47;;;3.30;;
14272;SDS011;7220;49.450;11.052;2023-09-12T15:58:17;4.00;;;3.60;;
14272;SDS011;7220;49.450;11.052;2023-09-12T16:02:18;4.15;;;3.75;;
14272;SDS011;7220;49.450;11.052;2023-09-12T16:06:18;4.45;;;3.75;;
14272;SDS011;7220;49.450;11.052;2023-09-12T16:10:19;4.80;;;3.87;;
14272;SDS011;7220;49.450;11.052;2023-09-12T16:14:19;4.20;;;3.90;;
14272;SDS011;7220;49.450;11.052;2023-09-12T16:18:20;4.13;;;3.73;;
14272;SDS011;7220;49.450;11.052;2023-09-12T16:22:20;3.97;;;3.67;;
14272;SDS011;7220;49.450;11.052;2023-09-12T16:26:20;4.77;;;3.57;;
14272;SDS011;7220;49.450;11.052;2023-09-12T16:30:21;4.05;;;3.47;;
14272;SDS011;7220;49.450;11.052;2023-09-12T16:34:21;5.50;;;3.77;;
14272;SDS011;7220;49.450;11.052;2023-09-12T16:38:21;4.43;;;3.97;;
14272;SDS011;7220;49.450;11.052;2023-09-12T16:42:22;5.03;;;4.33;;
14272;SDS011;7220;49.450;11.052;2023-09-12T16:46:22;4.82;;;3.80;;
14272;SDS011;7220;49.450;11.052;2023-09-12T16:50:24;5.30;;;4.03;;
14272;SDS011;7220;49.450;11.052;2023-09-12T16:54:25;5.28;;;4.38;;
14272;SDS011;7220;49.450;11.052;2023-09-12T16:58:25;4.57;;;4.00;;
14272;SDS011;7220;49.450;11.052;2023-09-12T17:02:28;5.68;;;4.40;;
14272;SDS011;7220;49.450;11.052;2023-09-12T17:06:29;4.53;;;4.13;;
14272;SDS011;7220;49.450;11.052;2023-09-12T17:10:32;5.30;;;4.63;;
14272;SDS011;7220;49.450;11.052;2023-09-12T17:14:32;5.35;;;4.85;;
14272;SDS011;7220;49.450;11.052;2023-09-12T17:18:33;4.73;;;4.23;;
14272;SDS011;7220;49.450;11.052;2023-09-12T17:22:34;5.70;;;4.60;;
14272;SDS011;7220;49.450;11.052;2023-09-12T17:26:34;5.67;;;4.73;;
14272;SDS011;7220;49.450;11.052;2023-09-12T17:30:35;4.30;;;3.90;;
14272;SDS011;7220;49.450;11.052;2023-09-12T17:34:39;5.10;;;4.60;;
14272;SDS011;7220;49.450;11.052;2023-09-12T17:38:40;5.85;;;4.57;;
14272;SDS011;7220;49.450;11.052;2023-09-12T17:42:40;6.25;;;4.63;;
14272;SDS011;7220;49.450;11.052;2023-09-12T17:46:40;6.30;;;5.03;;
14272;SDS011;7220;49.450;11.052;2023-09-12T17:50:41;5.85;;;5.20;;
14272;SDS011;7220;49.450;11.052;2023-09-12T17:54:41;7.88;;;5.28;;
14272;SDS011;7220;49.450;11.052;2023-09-12T17:58:43;5.97;;;5.38;;
14272;SDS011;7220;49.450;11.052;2023-09-12T18:02:44;6.45;;;5.50;;
14272;SDS011;7220;49.450;11.052;2023-09-12T18:06:44;6.27;;;5.37;;
14272;SDS011;7220;49.450;11.052;2023-09-12T18:10:44;6.95;;;6.15;;
14272;SDS011;7220;49.450;11.052;2023-09-12T18:14:45;5.57;;;4.93;;
14272;SDS011;7220;49.450;11.052;2023-09-12T18:18:45;5.67;;;4.97;;
14272;SDS011;7220;49.450;11.052;2023-09-12T18:22:46;7.43;;;5.78;;
14272;SDS011;7220;49.450;11.052;2023-09-12T18:26:46;6.20;;;4.67;;
14272;SDS011;7220;49.450;11.052;2023-09-12T18:30:46;6.82;;;5.68;;
14272;SDS011;7220;49.450;11.052;2023-09-12T18:34:47;6.53;;;4.83;;
14272;SDS011;7220;49.450;11.052;2023-09-12T18:38:47;6.45;;;5.72;;
14272;SDS011;7220;49.450;11.052;2023-09-12T18:42:51;5.88;;;5.20;;
14272;SDS011;7220;49.450;11.052;2023-09-12T18:46:51;7.60;;;5.43;;
14272;SDS011;7220;49.450;11.052;2023-09-12T18:50:51;7.15;;;5.60;;
14272;SDS011;7220;49.450;11.052;2023-09-12T18:54:52;7.07;;;5.78;;
14272;SDS011;7220;49.450;11.052;2023-09-12T18:58:52;8.13;;;6.60;;
14272;SDS011;7220;49.450;11.052;2023-09-12T19:02:52;7.63;;;5.80;;
14272;SDS011;7220;49.450;11.052;2023-09-12T19:06:53;7.83;;;5.83;;
14272;SDS011;7220;49.450;11.052;2023-09-12T19:10:53;7.13;;;5.87;;
14272;SDS011;7220;49.450;11.052;2023-09-12T19:14:53;6.18;;;5.57;;
14272;SDS011;7220;49.450;11.052;2023-09-12T19:18:54;6.23;;;5.57;;
14272;SDS011;7220;49.450;11.052;2023-09-12T19:22:54;5.50;;;5.00;;
14272;SDS011;7220;49.450;11.052;2023-09-12T19:26:54;6.00;;;5.18;;
14272;SDS011;7220;49.450;11.052;2023-09-12T19:30:55;5.93;;;4.87;;
14272;SDS011;7220;49.450;11.052;2023-09-12T19:34:57;5.80;;;5.00;;
14272;SDS011;7220;49.450;11.052;2023-09-12T19:38:58;6.80;;;5.47;;
14272;SDS011;7220;49.450;11.052;2023-09-12T19:43:01;6.20;;;5.10;;
14272;SDS011;7220;49.450;11.052;2023-09-12T19:47:01;5.70;;;5.00;;
14272;SDS011;7220;49.450;11.052;2023-09-12T19:51:02;6.45;;;5.60;;
14272;SDS011;7220;49.450;11.052;2023-09-12T19:55:02;7.35;;;5.05;;
14272;SDS011;7220;49.450;11.052;2023-09-12T19:59:03;6.13;;;4.97;;
14272;SDS011;7220;49.450;11.052;2023-09-12T20:03:03;5.32;;;4.30;;
14272;SDS011;7220;49.450;11.052;2023-09-12T20:07:05;5.80;;;4.13;;
14272;SDS011;7220;49.450;11.052;2023-09-12T20:11:08;6.00;;;4.60;;
14272;SDS011;7220;49.450;11.052;2023-09-12T20:15:09;5.20;;;3.88;;
14272;SDS011;7220;49.450;11.052;2023-09-12T20:19:09;4.20;;;3.58;;
14272;SDS011;7220;49.450;11.052;2023-09-12T20:23:09;6.00;;;4.57;;
14272;SDS011;7220;49.450;11.052;2023-09-12T20:27:10;4.70;;;4.20;;
14272;SDS011;7220;49.450;11.052;2023-09-12T20:31:10;4.43;;;3.90;;
14272;SDS011;7220;49.450;11.052;2023-09-12T20:35:10;3.53;;;3.23;;
14272;SDS011;7220;49.450;11.052;2023-09-12T20:39:21;3.53;;;3.23;;
14272;SDS011;7220;49.450;11.052;2023-09-12T20:43:28;3.70;;;3.40;;
14272;SDS011;7220;49.450;11.052;2023-09-12T20:47:29;4.07;;;3.55;;
14272;SDS011;7220;49.450;11.052;2023-09-12T20:51:30;4.83;;;3.50;;
14272;SDS011;7220;49.450;11.052;2023-09-12T20:55:35;4.20;;;3.20;;
14272;SDS011;7220;49.450;11.052;2023-09-12T20:59:37;4.10;;;3.42;;
14272;SDS011;7220;49.450;11.052;2023-09-12T21:03:38;4.13;;;3.35;;
14272;SDS011;7220;49.450;11.052;2023-09-12T21:07:38;3.40;;;3.10;;
14272;SDS011;7220;49.450;11.052;2023-09-12T21:11:38;4.45;;;4.05;;
14272;SDS011;7220;49.450;11.052;2023-09-12T21:15:39;5.53;;;3.60;;
14272;SDS011;7220;49.450;11.052;2023-09-12T21:19:39;6.23;;;4.57;;
14272;SDS011;7220;49.450;11.052;2023-09-12T21:23:39;5.78;;;3.85;;
14272;SDS011;7220;49.450;11.052;2023-09-12T21:27:39;4.63;;;4.03;;
14272;SDS011;7220;49.450;11.052;2023-09-12T21:31:40;4.27;;;3.60;;
14272;SDS011;7220;49.450;11.052;2023-09-12T21:35:40;5.18;;;4.20;;
14272;SDS011;7220;49.450;11.052;2023-09-12T21:39:41;5.87;;;4.47;;
14272;SDS011;7220;49.450;11.052;2023-09-12T21:43:42;6.50;;;4.47;;
14272;SDS011;7220;49.450;11.052;2023-09-12T21:47:42;5.72;;;4.57;;
14272;SDS011;7220;49.450;11.052;2023-09-12T21:51:43;7.00;;;4.80;;
14272;SDS011;7220;49.450;11.052;2023-09-12T21:55:43;5.68;;;4.97;;
14272;SDS011;7220;49.450;11.052;2023-09-12T21:59:44;5.30;;;4.70;;
14272;SDS011;7220;49.450;11.052;2023-09-12T22:03:44;5.70;;;5.10;;
14272;SDS011;7220;49.450;11.052;2023-09-12T22:07:45;5.25;;;4.75;;
14272;SDS011;7220;49.450;11.052;2023-09-12T22:11:45;5.03;;;4.50;;
14272;SDS011;7220;49.450;11.052;2023-09-12T22:15:46;5.55;;;4.28;;
14272;SDS011;7220;49.450;11.052;2023-09-12T22:19:46;4.85;;;4.30;;
14272;SDS011;7220;49.450;11.052;2023-09-12T22:23:48;7.05;;;4.80;;
14272;SDS011;7220;49.450;11.052;2023-09-12T22:27:49;5.88;;;4.95;;
14272;SDS011;7220;49.450;11.052;2023-09-12T22:31:49;4.93;;;4.03;;
14272;SDS011;7220;49.450;11.052;2023-09-12T22:35:53;5.30;;;4.70;;
14272;SDS011;7220;49.450;11.052;2023-09-12T22:39:54;5.50;;;4.78;;
14272;SDS011;7220;49.450;11.052;2023-09-12T22:43:54;4.72;;;4.10;;
14272;SDS011;7220;49.450;11.052;2023-09-12T22:47:54;6.07;;;4.53;;
14272;SDS011;7220;49.450;11.052;2023-09-12T22:51:55;5.28;;;4.60;;
14272;SDS011;7220;49.450;11.052;2023-09-12T22:55:55;6.33;;;4.50;;
14272;SDS011;7220;49.450;11.052;2023-09-12T22:59:55;5.50;;;4.90;;
14272;SDS011;7220;49.450;11.052;2023-09-12T23:03:56;4.95;;;4.45;;
14272;SDS011;7220;49.450;11.052;2023-09-12T23:07:56;5.20;;;4.10;;
14272;SDS011;7220;49.450;11.052;2023-09-12T23:11:56;5.75;;;4.57;;
14272;SDS011;7220;49.450;11.052;2023-09-12T23:15:58;4.65;;;4.07;;
14272;SDS011;7220;49.450;11.052;2023-09-12T23:19:59;4.88;;;4.22;;
14272;SDS011;7220;49.450;11.052;2023-09-12T23:23:59;4.90;;;4.13;;
14272;SDS011;7220;49.450;11.052;2023-09-12T23:28:00;5.40;;;4.43;;
14272;SDS011;7220;49.450;11.052;2023-09-12T23:32:02;5.05;;;4.00;;
14272;SDS011;7220;49.450;11.052;2023-09-12T23:36:02;5.20;;;4.70;;
14272;SDS011;7220;49.450;11.052;2023-09-12T23:40:03;4.50;;;4.07;;
14272;SDS011;7220;49.450;11.052;2023-09-12T23:44:05;4.18;;;3.78;;
14272;SDS011;7220;49.450;11.052;2023-09-12T23:48:05;4.63;;;3.90;;
14272;SDS011;7220;49.450;11.052;2023-09-12T23:52:06;4.90;;;4.18;;
14272;SDS011;7220;49.450;11.052;2023-09-12T23:56:06;4.35;;;3.95;;
